Time;durP1;ratioP1;P1;durP2;ratioP2;P2;SDS_P1;SDS_P2;PMS_P1;PMS_P2;Temp;Humidity;BMP_temperature;BMP_pressure;BME280_temperature;BME280_humidity;BME280_pressure;Samples;Min_cycle;Max_cycle;Signal;HPM_P1;HPM_P2
2022/03/27 00:01:52;;;;;;;6.88;4.15;;;7.20;99.90;;;;;;4998740;28;20069;-87
2022/03/27 00:04:18;;;;;;;5.78;4.20;;;7.30;99.90;;;;;;5007619;28;20041;-86
2022/03/27 00:06:43;;;;;;;6.70;4.07;;;7.20;99.90;;;;;;5009332;28;20148;-87
2022/03/27 00:09:09;;;;;;;8.50;4.20;;;7.20;99.90;;;;;;4992743;28;20030;-86
2022/03/27 00:11:34;;;;;;;8.13;3.78;;;7.20;99.90;;;;;;5001061;28;20046;-85
2022/03/27 00:14:02;;;;;;;7.15;3.47;;;7.20;99.90;;;;;;4996559;28;20034;-85
2022/03/27 00:16:28;;;;;;;6.97;3.65;;;7.20;99.90;;;;;;4994260;28;20042;-86
2022/03/27 00:18:54;;;;;;;7.75;2.97;;;7.10;99.90;;;;;;4994132;28;20034;-87
2022/03/27 00:21:22;;;;;;;5.72;3.50;;;7.10;99.90;;;;;;5000044;28;20088;-85
2022/03/27 00:23:50;;;;;;;6.28;3.22;;;7.10;99.90;;;;;;4994047;28;20051;-85
2022/03/27 00:26:16;;;;;;;5.18;3.03;;;7.00;99.90;;;;;;5007825;28;20042;-86
2022/03/27 00:28:43;;;;;;;5.53;3.20;;;7.00;99.90;;;;;;4993842;28;20512;-84
2022/03/27 00:31:10;;;;;;;5.47;2.85;;;6.90;99.90;;;;;;4996441;28;20038;-85
2022/03/27 00:33:37;;;;;;;6.65;3.40;;;6.90;99.90;;;;;;5010965;28;20308;-85
2022/03/27 00:36:08;;;;;;;9.13;4.30;;;6.90;99.90;;;;;;4996271;28;20109;-85
2022/03/27 00:38:33;;;;;;;8.05;4.00;;;6.80;99.90;;;;;;5004401;28;20049;-85
2022/03/27 00:40:59;;;;;;;10.05;4.82;;;6.80;99.90;;;;;;5008921;28;20038;-86
2022/03/27 00:43:27;;;;;;;10.02;4.10;;;6.80;99.90;;;;;;4994318;28;20042;-86
2022/03/27 00:45:53;;;;;;;11.30;4.18;;;6.90;99.90;;;;;;5008585;28;20049;-86
2022/03/27 00:48:20;;;;;;;9.30;5.07;;;7.00;99.90;;;;;;5001127;28;20038;-86
2022/03/27 00:50:47;;;;;;;10.23;4.53;;;7.00;99.90;;;;;;5005908;28;20343;-86
2022/03/27 00:53:13;;;;;;;11.30;5.30;;;7.00;99.90;;;;;;4997594;28;20042;-86
2022/03/27 00:55:39;;;;;;;9.38;4.25;;;6.90;99.90;;;;;;4993640;28;20042;-86
2022/03/27 00:58:05;;;;;;;10.57;4.70;;;6.90;99.90;;;;;;4994438;28;20046;-86
2022/03/27 01:00:43;;;;;;;11.63;4.90;;;6.90;99.90;;;;;;4991668;28;20038;-86
2022/03/27 01:03:15;;;;;;;8.85;4.75;;;6.90;99.90;;;;;;4997431;28;20046;-86
2022/03/27 01:05:45;;;;;;;9.93;4.68;;;6.90;99.90;;;;;;4997060;28;20058;-85
2022/03/27 01:08:12;;;;;;;8.00;4.40;;;6.90;99.90;;;;;;5010731;28;20049;-86
2022/03/27 01:10:39;;;;;;;10.85;4.70;;;6.90;99.90;;;;;;4994171;28;20038;-87
2022/03/27 01:13:12;;;;;;;9.55;5.10;;;7.00;99.90;;;;;;5010519;28;20038;-85
2022/03/27 01:15:45;;;;;;;12.80;5.47;;;7.00;99.90;;;;;;5006091;28;20042;-86
2022/03/27 01:18:14;;;;;;;12.48;4.97;;;7.00;99.90;;;;;;4993021;28;20046;-86
2022/03/27 01:20:41;;;;;;;8.32;5.00;;;7.10;99.90;;;;;;5006548;28;20050;-85
2022/03/27 01:23:10;;;;;;;15.23;5.30;;;7.10;99.90;;;;;;4992777;28;20188;-86
2022/03/27 01:25:37;;;;;;;10.40;5.20;;;7.10;99.90;;;;;;5005628;28;20054;-87
2022/03/27 01:28:03;;;;;;;10.73;5.30;;;7.10;99.90;;;;;;5011606;28;20049;-86
2022/03/27 01:30:29;;;;;;;14.25;5.50;;;7.10;99.90;;;;;;5013356;28;20043;-86
2022/03/27 01:32:55;;;;;;;11.95;5.40;;;7.10;99.90;;;;;;5000560;28;20050;-85
2022/03/27 01:35:21;;;;;;;11.27;5.18;;;7.10;99.90;;;;;;5002481;28;20042;-85
2022/03/27 01:37:47;;;;;;;11.05;5.18;;;7.10;99.90;;;;;;5001300;28;20125;-87
2022/03/27 01:40:13;;;;;;;11.82;5.47;;;7.00;99.90;;;;;;5002366;28;20054;-86
2022/03/27 01:42:39;;;;;;;10.90;5.50;;;7.00;99.90;;;;;;4995334;28;20053;-86
2022/03/27 01:45:06;;;;;;;12.18;5.85;;;7.00;99.90;;;;;;4999368;28;20521;-87
2022/03/27 01:47:32;;;;;;;13.13;6.22;;;6.90;99.90;;;;;;5006886;28;20508;-86
2022/03/27 01:49:58;;;;;;;12.68;5.65;;;6.90;99.90;;;;;;5011219;28;20033;-86
2022/03/27 01:52:23;;;;;;;11.55;6.03;;;6.80;99.90;;;;;;5001681;28;20530;-86
2022/03/27 01:54:49;;;;;;;10.98;5.35;;;6.80;99.90;;;;;;5002340;28;20134;-85
2022/03/27 01:57:15;;;;;;;12.25;5.88;;;6.70;99.90;;;;;;5011279;28;20492;-86
2022/03/27 01:59:41;;;;;;;11.48;6.28;;;6.70;99.90;;;;;;5011729;28;20038;-86
2022/03/27 02:02:06;;;;;;;16.52;5.65;;;6.70;99.90;;;;;;4996000;28;20042;-86
2022/03/27 02:04:32;;;;;;;11.18;6.00;;;6.70;99.90;;;;;;4986399;28;20110;-85
2022/03/27 02:06:57;;;;;;;10.95;5.53;;;6.70;99.90;;;;;;5011680;28;20050;-85
2022/03/27 02:09:23;;;;;;;10.25;5.40;;;6.70;99.90;;;;;;4998174;28;20039;-86
2022/03/27 02:11:48;;;;;;;12.80;6.50;;;6.80;99.90;;;;;;5005699;28;20038;-86
2022/03/27 02:14:14;;;;;;;10.63;5.40;;;6.80;99.90;;;;;;4994855;28;20093;-86
2022/03/27 02:16:40;;;;;;;12.85;6.05;;;6.70;99.90;;;;;;4977243;28;20413;-85
2022/03/27 02:19:10;;;;;;;13.60;5.78;;;6.70;99.90;;;;;;4981694;28;20502;-86
2022/03/27 02:21:36;;;;;;;13.32;6.80;;;6.70;99.90;;;;;;4984416;28;20049;-85
2022/03/27 02:24:03;;;;;;;15.10;6.65;;;6.70;99.90;;;;;;4997299;28;20578;-85
2022/03/27 02:26:30;;;;;;;11.65;6.05;;;6.70;99.90;;;;;;4992643;28;20105;-86
2022/03/27 02:28:55;;;;;;;16.02;6.20;;;6.70;99.90;;;;;;4991376;28;20044;-85
2022/03/27 02:31:21;;;;;;;11.98;5.68;;;6.70;99.90;;;;;;4987529;28;20487;-85
2022/03/27 02:33:48;;;;;;;18.38;6.53;;;6.70;99.90;;;;;;4991738;28;20133;-85
2022/03/27 02:36:15;;;;;;;13.48;6.40;;;6.70;99.90;;;;;;4978802;28;20054;-85
2022/03/27 02:38:40;;;;;;;15.35;6.82;;;6.70;99.90;;;;;;4982881;28;20046;-85
2022/03/27 02:41:07;;;;;;;15.77;6.55;;;6.70;99.90;;;;;;4984158;28;20061;-85
2022/03/27 02:43:33;;;;;;;16.67;7.20;;;6.70;99.90;;;;;;4978287;28;20093;-85
2022/03/27 02:45:59;;;;;;;16.42;7.15;;;6.80;99.90;;;;;;4984799;28;20117;-85
2022/03/27 02:48:26;;;;;;;17.48;7.22;;;6.70;99.90;;;;;;4978662;28;20485;-85
2022/03/27 02:50:51;;;;;;;15.10;7.22;;;6.70;99.90;;;;;;5006730;28;20432;-86
2022/03/27 02:53:17;;;;;;;12.93;5.60;;;6.70;99.90;;;;;;5005873;28;20041;-84
2022/03/27 02:55:43;;;;;;;18.15;6.45;;;6.60;99.90;;;;;;5002447;28;20497;-85
2022/03/27 02:58:09;;;;;;;19.23;6.57;;;6.60;99.90;;;;;;4992339;28;20088;-85
2022/03/27 03:00:35;;;;;;;14.82;6.65;;;6.60;99.90;;;;;;4996234;28;20104;-86
2022/03/27 03:03:00;;;;;;;15.85;6.28;;;6.60;99.90;;;;;;4995070;28;20038;-86
2022/03/27 03:05:26;;;;;;;14.05;6.82;;;6.60;99.90;;;;;;5001586;28;20050;-87
2022/03/27 03:07:52;;;;;;;12.25;5.47;;;6.60;99.90;;;;;;4990414;28;20125;-87
2022/03/27 03:10:18;;;;;;;17.08;5.88;;;6.60;99.90;;;;;;4993304;28;20084;-86
2022/03/27 03:12:44;;;;;;;21.13;5.90;;;6.80;99.90;;;;;;5009052;28;20034;-87
2022/03/27 03:15:10;;;;;;;14.75;5.40;;;6.60;99.90;;;;;;5002706;28;20045;-86
2022/03/27 03:17:36;;;;;;;15.40;5.80;;;6.50;99.90;;;;;;4992581;28;20058;-86
2022/03/27 03:20:02;;;;;;;14.98;5.50;;;6.30;99.90;;;;;;4991095;28;20046;-84
2022/03/27 03:22:29;;;;;;;12.60;6.20;;;6.30;99.90;;;;;;4991115;28;20117;-85
2022/03/27 03:24:54;;;;;;;13.73;5.88;;;6.20;99.90;;;;;;4991840;28;20042;-85
2022/03/27 03:27:20;;;;;;;14.43;5.25;;;6.10;99.90;;;;;;5004888;28;20057;-84
2022/03/27 03:29:46;;;;;;;15.40;5.15;;;6.00;99.90;;;;;;4998219;28;20042;-85
2022/03/27 03:32:11;;;;;;;13.48;5.80;;;6.00;99.90;;;;;;5004540;28;20081;-85
2022/03/27 03:34:37;;;;;;;10.38;5.03;;;5.90;99.90;;;;;;4995304;28;20046;-86
2022/03/27 03:37:03;;;;;;;12.82;5.60;;;5.80;99.90;;;;;;5004985;28;20042;-86
2022/03/27 03:39:28;;;;;;;15.80;5.80;;;5.70;99.90;;;;;;5002256;28;20121;-85
2022/03/27 03:41:54;;;;;;;13.75;5.28;;;5.70;99.90;;;;;;4995491;28;20046;-85
2022/03/27 03:44:19;;;;;;;14.95;5.43;;;5.60;99.90;;;;;;5000900;28;20085;-86
2022/03/27 03:46:46;;;;;;;12.20;5.57;;;5.60;99.90;;;;;;5001613;28;20057;-86
2022/03/27 03:49:12;;;;;;;16.15;5.65;;;5.50;99.90;;;;;;4996875;28;20054;-86
2022/03/27 03:51:37;;;;;;;11.35;5.38;;;5.50;99.90;;;;;;4991576;28;20047;-85
2022/03/27 03:54:07;;;;;;;55.15;6.50;;;5.50;99.90;;;;;;4991525;28;20587;-86
2022/03/27 03:56:32;;;;;;;85.03;7.07;;;5.40;99.90;;;;;;5009340;28;20463;-86
2022/03/27 03:58:58;;;;;;;132.30;7.43;;;5.40;99.90;;;;;;4993716;28;20121;-86
2022/03/27 04:01:23;;;;;;;173.90;7.80;;;5.30;99.90;;;;;;4998426;28;20037;-86
2022/03/27 04:03:50;;;;;;;273.67;9.80;;;5.20;99.90;;;;;;5008573;28;20140;-86
2022/03/27 04:06:16;;;;;;;296.55;8.95;;;5.20;99.90;;;;;;5009474;28;20125;-85
2022/03/27 04:08:41;;;;;;;334.92;10.35;;;5.20;99.90;;;;;;5010092;28;20108;-86
2022/03/27 04:11:07;;;;;;;442.45;12.05;;;5.00;99.90;;;;;;4998384;28;20093;-87
2022/03/27 04:13:32;;;;;;;432.92;12.57;;;5.00;99.90;;;;;;5006264;28;20077;-86
2022/03/27 04:16:00;;;;;;;538.83;13.60;;;5.00;99.90;;;;;;5003483;28;20038;-85
2022/03/27 04:18:25;;;;;;;460.88;12.60;;;5.00;99.90;;;;;;4992924;28;20584;-86
2022/03/27 04:20:51;;;;;;;397.05;12.00;;;5.00;99.90;;;;;;5009421;28;20113;-85
2022/03/27 04:23:17;;;;;;;518.53;12.50;;;4.90;99.90;;;;;;5013653;28;20069;-87
2022/03/27 04:25:43;;;;;;;409.75;12.35;;;4.80;99.90;;;;;;5004249;28;20049;-87
2022/03/27 04:28:10;;;;;;;392.40;10.18;;;4.80;99.90;;;;;;5008077;28;20033;-86
2022/03/27 04:30:37;;;;;;;444.13;12.35;;;4.80;99.90;;;;;;5011313;28;20046;-86
2022/03/27 04:33:03;;;;;;;365.70;8.13;;;4.70;99.90;;;;;;4978287;28;20030;-86
2022/03/27 04:35:28;;;;;;;334.60;9.88;;;4.70;99.90;;;;;;4994699;28;20420;-85
2022/03/27 04:37:54;;;;;;;193.40;7.70;;;4.70;99.90;;;;;;4993830;28;20053;-85
2022/03/27 04:40:20;;;;;;;158.02;6.10;;;4.80;99.90;;;;;;4997025;28;20038;-85
2022/03/27 04:42:45;;;;;;;225.10;7.28;;;4.80;99.90;;;;;;4996255;28;20050;-86
2022/03/27 04:45:12;;;;;;;289.33;8.32;;;4.80;99.90;;;;;;5010065;28;20038;-85
2022/03/27 04:47:38;;;;;;;150.50;5.25;;;4.80;99.90;;;;;;5007275;28;20041;-86
2022/03/27 04:50:05;;;;;;;125.15;5.90;;;4.70;99.90;;;;;;5010221;28;20039;-86
2022/03/27 04:52:31;;;;;;;130.55;5.32;;;4.80;99.90;;;;;;5007041;28;20034;-86
2022/03/27 04:54:56;;;;;;;77.00;4.20;;;4.80;99.90;;;;;;5012254;28;20044;-86
2022/03/27 04:57:22;;;;;;;84.43;3.90;;;4.80;99.90;;;;;;5008247;28;20132;-86
2022/03/27 04:59:48;;;;;;;40.47;2.58;;;4.80;99.90;;;;;;5013561;28;20704;-87
2022/03/27 05:02:14;;;;;;;94.65;4.05;;;4.80;99.90;;;;;;4990893;28;20038;-87
2022/03/27 05:04:41;;;;;;;115.10;4.60;;;4.80;99.90;;;;;;4993435;28;20484;-87
2022/03/27 05:07:07;;;;;;;94.28;3.75;;;4.70;99.90;;;;;;4997297;28;20419;-87
2022/03/27 05:09:32;;;;;;;104.82;4.20;;;4.70;99.90;;;;;;5005218;28;20035;-87
2022/03/27 05:11:58;;;;;;;110.32;4.00;;;4.60;99.90;;;;;;5000681;28;20045;-87
2022/03/27 05:14:23;;;;;;;89.07;3.70;;;4.60;99.90;;;;;;5005721;28;20400;-88
2022/03/27 05:16:49;;;;;;;134.65;4.72;;;4.60;99.90;;;;;;5012594;28;20519;-86
2022/03/27 05:19:15;;;;;;;53.08;3.30;;;4.60;99.90;;;;;;5006513;28;20042;-86
2022/03/27 05:21:40;;;;;;;92.07;3.63;;;4.50;99.90;;;;;;5000647;28;20412;-86
2022/03/27 05:24:08;;;;;;;55.25;2.92;;;4.50;99.90;;;;;;4982032;28;20125;-86
2022/03/27 05:26:35;;;;;;;63.17;2.90;;;5.00;99.90;;;;;;5011899;28;20037;-86
2022/03/27 05:29:03;;;;;;;9.15;2.00;;;4.40;99.90;;;;;;5008380;28;20048;-86
2022/03/27 05:31:29;;;;;;;19.35;2.20;;;4.40;99.90;;;;;;5005022;28;20042;-87
2022/03/27 05:33:54;;;;;;;29.63;2.35;;;4.30;99.90;;;;;;5001869;28;20495;-87
2022/03/27 05:36:21;;;;;;;24.25;2.53;;;4.30;99.90;;;;;;4994535;28;20461;-86
2022/03/27 05:38:47;;;;;;;33.30;2.40;;;4.30;99.90;;;;;;5013272;28;20092;-85
2022/03/27 05:41:13;;;;;;;16.85;1.92;;;4.20;99.90;;;;;;4996056;28;20430;-86
2022/03/27 05:43:38;;;;;;;10.63;1.50;;;4.10;99.90;;;;;;4995868;28;20038;-86
2022/03/27 05:46:04;;;;;;;12.82;1.88;;;4.10;99.90;;;;;;5008990;28;20038;-87
2022/03/27 05:48:30;;;;;;;4.47;1.67;;;4.10;99.90;;;;;;4997179;28;20407;-87
2022/03/27 05:50:56;;;;;;;7.22;1.85;;;4.40;99.90;;;;;;4965646;28;20039;-87
2022/03/27 05:53:21;;;;;;;4.15;2.10;;;4.20;99.90;;;;;;4980872;28;20038;-86
2022/03/27 05:55:47;;;;;;;5.70;1.70;;;4.20;99.90;;;;;;4976394;28;20047;-85
2022/03/27 05:58:13;;;;;;;73.40;3.63;;;4.10;99.90;;;;;;4984108;28;20104;-86
2022/03/27 06:00:40;;;;;;;23.60;2.70;;;4.20;99.90;;;;;;4980203;28;20057;-86
2022/03/27 06:03:06;;;;;;;14.88;2.63;;;4.20;99.90;;;;;;4979822;28;20035;-87
2022/03/27 06:05:31;;;;;;;23.35;3.05;;;4.70;99.90;;;;;;4982110;28;20045;-86
2022/03/27 06:07:58;;;;;;;17.70;3.53;;;4.40;99.90;;;;;;4976503;28;20401;-86
2022/03/27 06:10:26;;;;;;;7.68;2.70;;;4.30;99.90;;;;;;4978644;28;20146;-86
2022/03/27 06:12:53;;;;;;;7.20;2.90;;;4.40;99.90;;;;;;4998931;28;20033;-86
2022/03/27 06:15:19;;;;;;;10.50;2.95;;;4.40;99.90;;;;;;4991160;28;20420;-86
2022/03/27 06:17:47;;;;;;;8.55;2.80;;;4.60;99.90;;;;;;4976607;28;20489;-87
2022/03/27 06:20:18;;;;;;;9.43;2.90;;;4.50;99.90;;;;;;4976191;28;20043;-86
2022/03/27 06:22:44;;;;;;;5.90;2.70;;;4.80;99.90;;;;;;4979502;28;20038;-87
2022/03/27 06:25:12;;;;;;;4.70;2.58;;;4.70;99.90;;;;;;4985035;28;20043;-86
2022/03/27 06:27:38;;;;;;;6.55;2.55;;;4.80;99.90;;;;;;4978929;28;20571;-86
2022/03/27 06:30:09;;;;;;;7.03;2.78;;;4.90;99.90;;;;;;4981965;28;20038;-87
2022/03/27 06:32:36;;;;;;;7.63;2.70;;;4.90;99.90;;;;;;4986133;28;20048;-86
2022/03/27 06:35:05;;;;;;;7.60;2.85;;;5.00;99.90;;;;;;4983025;28;20065;-86
2022/03/27 06:37:32;;;;;;;6.57;2.80;;;5.00;99.90;;;;;;4978859;28;20389;-85
2022/03/27 06:39:58;;;;;;;10.00;3.25;;;5.10;99.90;;;;;;4980898;28;20039;-85
2022/03/27 06:42:26;;;;;;;22.38;4.00;;;5.20;99.90;;;;;;4981344;28;21168;-86
2022/03/27 06:44:52;;;;;;;9.63;2.70;;;5.30;99.90;;;;;;4992692;28;20054;-86
2022/03/27 06:47:22;;;;;;;11.98;2.70;;;5.40;99.90;;;;;;5000115;28;20042;-86
2022/03/27 06:49:48;;;;;;;13.60;3.28;;;5.50;99.90;;;;;;4995625;28;20049;-85
2022/03/27 06:52:15;;;;;;;15.88;3.88;;;5.60;99.90;;;;;;5001608;28;20108;-86
2022/03/27 06:54:41;;;;;;;17.65;4.75;;;5.70;99.90;;;;;;4996807;28;20452;-85
2022/03/27 06:57:07;;;;;;;25.52;4.88;;;5.80;99.90;;;;;;4991229;28;20113;-86
2022/03/27 07:03:01;;;;;;;21.33;4.80;;;5.90;99.90;;;;;;4991459;28;20113;-85
2022/03/27 07:05:03;;;;;;;36.67;6.25;;;6.10;99.90;;;;;;4991360;28;20041;-85
2022/03/27 07:07:29;;;;;;;31.98;5.63;;;6.20;99.90;;;;;;4997968;28;20046;-85
2022/03/27 07:09:55;;;;;;;30.40;6.53;;;6.30;99.90;;;;;;4994004;28;20045;-85
2022/03/27 07:12:21;;;;;;;40.05;6.45;;;6.40;99.90;;;;;;4993675;28;20129;-84
2022/03/27 07:14:47;;;;;;;40.72;6.40;;;6.60;99.90;;;;;;4987927;28;20046;-85
2022/03/27 07:17:17;;;;;;;34.90;7.07;;;6.70;99.90;;;;;;4988779;28;20121;-85
2022/03/27 07:19:46;;;;;;;40.45;7.32;;;6.90;99.90;;;;;;4985271;28;20034;-85
2022/03/27 07:22:13;;;;;;;44.90;6.22;;;7.00;99.90;;;;;;5005066;28;20038;-86
2022/03/27 07:24:38;;;;;;;36.92;6.80;;;7.10;99.90;;;;;;4986702;28;20489;-85
2022/03/27 07:27:05;;;;;;;39.22;8.05;;;7.20;99.90;;;;;;4990028;28;20065;-86
2022/03/27 07:29:31;;;;;;;39.83;7.20;;;7.30;99.90;;;;;;4999291;28;20053;-86
2022/03/27 07:31:57;;;;;;;37.80;7.25;;;7.40;99.90;;;;;;5002250;28;20058;-85
2022/03/27 07:34:23;;;;;;;34.88;6.55;;;7.60;99.90;;;;;;5004184;28;20042;-85
2022/03/27 07:36:49;;;;;;;36.78;6.97;;;8.10;99.90;;;;;;5002469;28;20045;-86
2022/03/27 07:39:14;;;;;;;43.05;6.85;;;7.70;99.90;;;;;;4997945;28;20053;-87
2022/03/27 07:41:40;;;;;;;38.38;6.85;;;7.80;99.90;;;;;;5008158;28;20117;-86
2022/03/27 07:44:06;;;;;;;33.47;6.68;;;7.90;99.90;;;;;;5009980;28;20049;-87
2022/03/27 07:46:32;;;;;;;35.10;6.70;;;7.90;99.90;;;;;;5011639;28;20044;-86
2022/03/27 07:48:58;;;;;;;40.13;7.35;;;8.10;99.90;;;;;;5011404;28;20434;-85
2022/03/27 07:51:23;;;;;;;38.15;6.70;;;8.20;99.90;;;;;;5011378;28;20068;-86
2022/03/27 07:53:49;;;;;;;37.85;6.80;;;8.40;99.90;;;;;;5010902;28;20038;-86
2022/03/27 07:56:15;;;;;;;35.75;6.65;;;8.60;99.90;;;;;;5015264;28;20058;-86
2022/03/27 07:58:41;;;;;;;35.08;6.68;;;8.80;99.90;;;;;;5015345;28;20036;-86
2022/03/27 08:01:06;;;;;;;40.30;6.88;;;8.90;99.90;;;;;;5017420;28;20120;-86
2022/03/27 08:03:34;;;;;;;36.13;7.32;;;9.10;99.90;;;;;;5014085;28;20088;-86
2022/03/27 08:06:00;;;;;;;45.70;8.30;;;9.10;99.90;;;;;;5013817;28;20120;-86
2022/03/27 08:08:26;;;;;;;34.22;7.72;;;9.20;99.90;;;;;;5013810;28;20125;-85
2022/03/27 08:10:51;;;;;;;40.88;7.72;;;9.30;99.90;;;;;;5015001;28;20124;-86
2022/03/27 08:13:17;;;;;;;42.58;7.97;;;9.30;99.90;;;;;;5013810;28;20053;-86
2022/03/27 08:15:43;;;;;;;31.23;6.68;;;9.40;99.90;;;;;;5013545;28;20038;-85
2022/03/27 08:18:13;;;;;;;33.60;6.85;;;9.50;99.90;;;;;;5014896;28;20391;-86
2022/03/27 08:20:39;;;;;;;41.50;7.93;;;9.60;99.90;;;;;;5013659;28;20096;-86
2022/03/27 08:23:04;;;;;;;30.67;6.95;;;9.50;99.90;;;;;;5015016;28;20046;-86
2022/03/27 08:28:14;;;;;;;37.70;7.10;;;9.70;99.90;;;;;;5014857;28;20042;-85
2022/03/27 08:30:40;;;;;;;35.17;7.60;;;9.80;99.90;;;;;;5014673;28;20453;-86
2022/03/27 08:33:06;;;;;;;37.92;7.70;;;9.90;99.90;;;;;;5013392;28;20046;-86
2022/03/27 08:35:31;;;;;;;32.50;7.30;;;10.00;99.90;;;;;;5014585;28;20496;-87
2022/03/27 08:37:57;;;;;;;33.13;7.10;;;10.20;99.90;;;;;;5014477;28;20053;-86
2022/03/27 08:40:23;;;;;;;31.42;6.93;;;10.40;99.90;;;;;;5013516;28;20056;-86
2022/03/27 08:42:49;;;;;;;33.03;6.10;;;10.40;99.90;;;;;;5013222;28;20041;-86
2022/03/27 08:45:14;;;;;;;33.30;6.95;;;10.30;99.90;;;;;;5014526;28;20045;-86
2022/03/27 08:47:40;;;;;;;33.53;7.07;;;10.40;99.90;;;;;;5012552;28;20433;-86
2022/03/27 08:50:12;;;;;;;35.10;6.63;;;10.50;99.90;;;;;;5013309;28;20056;-86
2022/03/27 08:53:06;;;;;;;33.55;7.22;;;10.60;99.90;;;;;;5010801;28;20046;-86
2022/03/27 08:55:50;;;;;;;27.58;6.70;;;10.60;99.90;;;;;;4990684;28;20054;-86
2022/03/27 08:58:16;;;;;;;;;;;10.80;99.90;;;;;;4994326;28;20096;-86
2022/03/27 09:00:41;;;;;;;28.52;6.22;;;10.80;99.90;;;;;;4993475;28;19917;-86
2022/03/27 09:03:07;;;;;;;30.73;7.25;;;11.00;99.90;;;;;;4993429;28;20077;-85
2022/03/27 09:05:37;;;;;;;40.08;7.35;;;11.00;99.90;;;;;;4991976;28;20061;-85
2022/03/27 09:08:07;;;;;;;37.55;7.40;;;11.10;99.90;;;;;;4992215;28;20134;-85
2022/03/27 09:10:34;;;;;;;28.90;6.43;;;11.30;99.90;;;;;;4994376;28;20101;-85
2022/03/27 09:13:00;;;;;;;31.45;6.80;;;11.30;99.90;;;;;;4993405;28;20119;-84
2022/03/27 09:15:26;;;;;;;28.23;6.07;;;11.50;99.90;;;;;;4994022;28;20038;-85
2022/03/27 09:17:59;;;;;;;29.67;6.18;;;11.60;99.90;;;;;;4994012;28;20042;-85
2022/03/27 09:20:41;;;;;;;34.83;6.57;;;11.60;99.90;;;;;;4993042;28;20046;-86
2022/03/27 09:23:16;;;;;;;33.95;6.50;;;11.60;99.90;;;;;;5009134;28;20050;-85
2022/03/27 09:25:47;;;;;;;28.25;6.45;;;11.70;99.90;;;;;;4992791;28;20042;-86
2022/03/27 09:28:22;;;;;;;32.92;6.35;;;11.70;99.90;;;;;;4992695;28;20066;-86
2022/03/27 09:30:48;;;;;;;30.10;6.25;;;11.70;99.90;;;;;;4992762;28;20043;-86
2022/03/27 09:33:31;;;;;;;30.13;6.47;;;11.80;99.90;;;;;;4994151;28;20041;-85
2022/03/27 09:36:08;;;;;;;25.30;5.38;;;11.80;99.90;;;;;;4993801;28;20038;-85
2022/03/27 09:38:34;;;;;;;26.52;6.05;;;11.90;99.90;;;;;;4992666;28;20057;-86
2022/03/27 09:41:00;;;;;;;28.40;6.15;;;11.90;99.90;;;;;;4993830;28;20539;-86
2022/03/27 09:43:26;;;;;;;23.73;6.00;;;12.10;99.90;;;;;;4993814;28;20042;-85
2022/03/27 09:45:59;;;;;;;23.77;5.53;;;12.10;99.90;;;;;;4992312;28;20105;-86
2022/03/27 09:48:26;;;;;;;24.70;5.35;;;12.20;99.90;;;;;;5008730;28;20042;-86
2022/03/27 09:50:53;;;;;;;25.45;5.88;;;12.20;99.90;;;;;;4993438;28;20088;-86
2022/03/27 09:53:20;;;;;;;37.35;6.53;;;12.20;99.90;;;;;;5008697;28;20045;-85
2022/03/27 09:56:10;;;;;;;30.50;5.90;;;12.30;99.90;;;;;;4992150;28;20078;-86
2022/03/27 09:58:46;;;;;;;30.27;6.75;;;12.40;99.90;;;;;;4975147;28;20046;-86
2022/03/27 10:01:25;;;;;;;30.92;6.55;;;12.50;99.90;;;;;;4989139;28;20045;-86
2022/03/27 10:04:07;;;;;;;23.70;6.00;;;12.60;99.90;;;;;;4990741;28;20077;-85
2022/03/27 10:06:38;;;;;;;28.77;5.82;;;12.50;99.90;;;;;;4989806;28;20046;-86
2022/03/27 10:09:06;;;;;;;29.40;6.60;;;12.80;99.90;;;;;;4988788;28;20078;-85
2022/03/27 10:11:32;;;;;;;30.83;5.55;;;12.90;99.90;;;;;;4989181;28;20048;-86
2022/03/27 10:13:59;;;;;;;27.98;5.45;;;13.00;99.90;;;;;;4995185;28;20507;-86
2022/03/27 10:16:30;;;;;;;26.80;5.40;;;13.10;99.90;;;;;;5001151;28;20551;-85
2022/03/27 10:19:12;;;;;;;29.25;5.35;;;13.20;99.90;;;;;;4991667;28;20129;-87
2022/03/27 10:21:42;;;;;;;27.58;5.68;;;13.30;99.90;;;;;;4978221;28;20050;-86
2022/03/27 10:24:12;;;;;;;24.02;5.20;;;13.20;99.90;;;;;;4996692;28;20064;-86
2022/03/27 10:26:39;;;;;;;21.67;4.90;;;13.30;99.90;;;;;;4998250;28;20037;-87
2022/03/27 10:29:07;;;;;;;26.08;5.32;;;13.10;99.90;;;;;;4995017;28;20304;-86
2022/03/27 10:31:33;;;;;;;27.50;5.63;;;13.30;99.90;;;;;;4995356;28;20515;-87
2022/03/27 10:34:01;;;;;;;22.52;4.75;;;13.50;99.90;;;;;;4996225;28;20061;-87
2022/03/27 10:36:29;;;;;;;30.50;5.28;;;13.50;99.90;;;;;;5002972;28;20042;-86
2022/03/27 10:39:14;;;;;;;22.40;5.13;;;13.50;99.90;;;;;;5009188;28;20038;-86
2022/03/27 10:41:54;;;;;;;30.42;5.13;;;13.70;99.90;;;;;;5009558;28;20114;-87
2022/03/27 10:44:40;;;;;;;31.63;6.07;;;13.70;99.90;;;;;;5010084;28;20030;-87
2022/03/27 10:47:17;;;;;;;32.78;5.35;;;13.90;99.90;;;;;;5002580;28;20105;-86
2022/03/27 10:50:08;;;;;;;27.63;5.10;;;14.00;99.90;;;;;;4972293;28;20050;-87
2022/03/27 10:52:43;;;;;;;21.27;4.40;;;14.10;99.90;;;;;;4993495;28;20054;-87
2022/03/27 10:55:14;;;;;;;23.55;5.32;;;14.20;99.90;;;;;;4997704;28;20403;-86
2022/03/27 10:57:42;;;;;;;26.13;5.68;;;14.30;99.90;;;;;;5012369;28;20042;-86
2022/03/27 11:00:12;;;;;;;25.00;5.20;;;14.40;99.90;;;;;;4990871;28;20062;-87
2022/03/27 11:02:53;;;;;;;25.30;5.05;;;14.50;99.90;;;;;;4991219;28;20097;-87
2022/03/27 11:05:36;;;;;;;24.83;5.32;;;14.60;99.90;;;;;;4990645;28;20046;-86
2022/03/27 11:08:17;;;;;;;20.30;4.13;;;14.70;99.90;;;;;;5004101;28;20237;-87
2022/03/27 11:10:44;;;;;;;20.42;4.38;;;14.90;99.90;;;;;;5000618;28;20448;-86
2022/03/27 11:13:31;;;;;;;20.58;4.70;;;15.10;99.90;;;;;;5001314;28;20041;-86
2022/03/27 11:16:09;;;;;;;23.58;5.22;;;15.20;99.90;;;;;;5004978;28;20093;-86
2022/03/27 11:18:50;;;;;;;14.68;4.10;;;15.30;99.90;;;;;;4990762;28;20042;-86
2022/03/27 11:21:27;;;;;;;23.08;4.30;;;15.30;99.50;;;;;;4998469;28;20087;-86
2022/03/27 11:23:55;;;;;;;24.50;4.85;;;15.30;99.90;;;;;;4992096;28;20046;-86
2022/03/27 11:26:20;;;;;;;17.33;3.90;;;15.40;99.90;;;;;;5003179;28;20034;-86
2022/03/27 11:28:46;;;;;;;20.63;4.60;;;15.60;99.90;;;;;;4995192;28;20448;-86
2022/03/27 11:31:11;;;;;;;19.50;4.50;;;15.60;99.90;;;;;;5000390;28;20118;-86
2022/03/27 11:33:39;;;;;;;18.75;4.32;;;15.70;99.90;;;;;;5005903;28;20042;-86
2022/03/27 11:36:08;;;;;;;24.20;3.60;;;15.90;99.30;;;;;;4997159;28;20048;-85
2022/03/27 11:38:55;;;;;;;18.02;4.07;;;16.00;99.20;;;;;;5006238;28;20038;-85
2022/03/27 11:41:34;;;;;;;17.65;3.95;;;16.20;97.00;;;;;;4996334;28;20157;-86
2022/03/27 11:47:34;;;;;;;17.45;3.95;;;16.30;93.00;;;;;;4996209;28;20050;-86
2022/03/27 11:49:59;;;;;;;15.38;3.33;;;16.50;97.00;;;;;;5023328;28;20088;-86
2022/03/27 11:52:25;;;;;;;13.38;3.22;;;16.60;97.40;;;;;;4991483;28;20334;-86
2022/03/27 11:55:09;;;;;;;11.95;2.90;;;16.60;95.70;;;;;;4997937;28;20199;-86
2022/03/27 11:57:53;;;;;;;16.13;3.10;;;16.70;91.10;;;;;;4979966;28;20043;-86
2022/03/27 12:00:35;;;;;;;18.98;3.38;;;16.70;92.70;;;;;;4998591;28;20030;-86
2022/03/27 12:03:02;;;;;;;16.27;3.38;;;16.80;88.40;;;;;;4993048;28;20042;-86
2022/03/27 12:05:34;;;;;;;15.48;3.85;;;16.90;92.50;;;;;;4992633;28;20073;-85
2022/03/27 12:08:00;;;;;;;13.98;2.92;;;17.00;91.60;;;;;;4989792;28;20135;-85
2022/03/27 12:10:26;;;;;;;13.48;3.40;;;17.10;91.90;;;;;;4996902;28;20128;-86
2022/03/27 12:13:04;;;;;;;10.25;2.75;;;17.10;91.40;;;;;;4990424;28;20576;-85
2022/03/27 12:15:49;;;;;;;10.50;3.20;;;17.20;90.40;;;;;;4996347;28;20046;-85
2022/03/27 12:18:35;;;;;;;17.75;3.22;;;17.20;89.50;;;;;;4992847;28;20062;-85
2022/03/27 12:21:06;;;;;;;16.75;3.03;;;17.30;90.80;;;;;;4995140;28;20054;-85
2022/03/27 12:23:52;;;;;;;14.73;2.83;;;17.50;87.40;;;;;;4999529;28;20050;-85
2022/03/27 12:32:13;;;;;;;10.40;2.85;;;17.60;84.90;;;;;;5001495;28;20050;-85
2022/03/27 12:34:44;;;;;;;9.70;3.03;;;17.50;86.20;;;;;;4995834;28;20110;-84
2022/03/27 12:37:17;;;;;;;11.38;2.92;;;17.60;86.00;;;;;;4991050;28;20051;-86
2022/03/27 12:39:49;;;;;;;11.80;2.38;;;17.70;86.20;;;;;;4992450;28;20046;-86
2022/03/27 12:42:32;;;;;;;10.75;2.75;;;17.70;84.60;;;;;;4999373;28;20073;-85
2022/03/27 12:45:17;;;;;;;15.80;3.13;;;17.80;85.10;;;;;;5002125;28;20057;-85
2022/03/27 12:47:58;;;;;;;9.10;2.70;;;17.90;83.80;;;;;;4995689;28;20554;-86
2022/03/27 12:50:36;;;;;;;9.63;3.25;;;17.90;82.00;;;;;;4983990;28;20370;-85
2022/03/27 12:53:09;;;;;;;11.05;2.83;;;18.10;80.40;;;;;;4994103;28;20382;-85
2022/03/27 12:55:49;;;;;;;10.77;2.70;;;18.10;84.00;;;;;;4986849;28;20452;-85
2022/03/27 12:58:34;;;;;;;10.10;2.63;;;18.20;77.40;;;;;;5005612;28;20034;-84
2022/03/27 13:01:07;;;;;;;12.18;2.70;;;18.30;81.30;;;;;;4991508;28;20112;-85
2022/03/27 13:03:33;;;;;;;11.88;2.90;;;18.20;78.90;;;;;;4981573;28;20057;-86
2022/03/27 13:06:01;;;;;;;18.75;3.30;;;18.30;82.20;;;;;;4998242;28;20117;-85